createdAt,value
2022-07-28T00:00:05.329Z,15.32
2022-07-28T00:01:05.819Z,15.30
2022-07-28T00:02:05.272Z,15.28
2022-07-28T00:03:05.820Z,15.28
2022-07-28T00:04:05.787Z,15.28
2022-07-28T00:05:05.088Z,15.27
2022-07-28T00:06:07.570Z,15.26
2022-07-28T00:07:05.748Z,15.25
2022-07-28T00:08:05.739Z,15.23
2022-07-28T00:09:05.088Z,15.21
2022-07-28T00:10:05.080Z,15.20
2022-07-28T00:11:05.720Z,15.18
2022-07-28T00:12:05.702Z,15.15
2022-07-28T00:13:06.778Z,15.13
2022-07-28T00:14:05.033Z,15.10
2022-07-28T00:15:05.663Z,15.08
2022-07-28T00:16:06.952Z,15.07
2022-07-28T00:17:05.632Z,15.05
2022-07-28T00:18:05.638Z,15.04
2022-07-28T00:19:04.942Z,15.02
2022-07-28T00:20:04.993Z,15.01
2022-07-28T00:21:05.604Z,15.00
2022-07-28T00:22:05.582Z,14.99
2022-07-28T00:23:04.936Z,14.97
2022-07-28T00:24:04.922Z,14.96
2022-07-28T00:25:05.561Z,14.95
2022-07-28T00:26:04.884Z,14.93
2022-07-28T00:27:05.551Z,14.92
2022-07-28T00:28:05.627Z,14.91
2022-07-28T00:29:04.861Z,14.91
2022-07-28T00:30:04.827Z,14.90
2022-07-28T00:31:05.608Z,14.89
2022-07-28T00:32:05.500Z,14.88
2022-07-28T00:33:05.195Z,14.87
2022-07-28T00:34:05.465Z,14.85
2022-07-28T00:35:04.776Z,14.85
2022-07-28T00:36:04.779Z,14.83
2022-07-28T00:37:06.785Z,14.82
2022-07-28T00:38:05.413Z,14.82
2022-07-28T00:39:05.696Z,14.82
2022-07-28T00:40:05.398Z,14.81
2022-07-28T00:41:05.386Z,14.81
2022-07-28T00:42:05.369Z,14.80
2022-07-28T00:43:05.359Z,14.80
2022-07-28T00:44:04.726Z,14.78
2022-07-28T00:45:05.545Z,14.78
2022-07-28T00:46:04.731Z,14.77
2022-07-28T00:47:05.722Z,14.76
2022-07-28T00:48:04.682Z,14.76
2022-07-28T00:49:05.389Z,14.76
2022-07-28T00:50:05.259Z,14.75
2022-07-28T00:51:05.269Z,14.75
2022-07-28T00:52:05.264Z,14.75
2022-07-28T00:53:06.566Z,14.74
2022-07-28T00:54:04.559Z,14.74
2022-07-28T00:55:04.554Z,14.74
2022-07-28T00:56:06.589Z,14.74
2022-07-28T00:57:04.530Z,14.74
2022-07-28T00:58:05.199Z,14.74
2022-07-28T00:59:05.180Z,14.74
2022-07-28T01:00:04.482Z,14.73
2022-07-28T01:01:05.151Z,14.72
2022-07-28T01:02:04.703Z,14.72
2022-07-28T01:03:04.613Z,14.72
2022-07-28T01:04:04.477Z,14.71
2022-07-28T01:05:05.122Z,14.72
2022-07-28T01:06:04.458Z,14.71
2022-07-28T01:07:05.093Z,14.72
2022-07-28T01:08:04.453Z,14.71
2022-07-28T01:09:05.084Z,14.70
2022-07-28T01:10:04.393Z,14.70
2022-07-28T01:11:04.574Z,14.68
2022-07-28T01:12:05.041Z,14.67
2022-07-28T01:13:05.226Z,14.66
2022-07-28T01:14:04.994Z,14.66
2022-07-28T01:15:04.369Z,14.66
2022-07-28T01:16:06.818Z,14.65
2022-07-28T01:17:04.986Z,14.66
2022-07-28T01:18:04.982Z,14.66
2022-07-28T01:19:05.045Z,14.66
2022-07-28T01:20:04.323Z,14.66
2022-07-28T01:21:04.953Z,14.66
2022-07-28T01:22:04.917Z,14.66
2022-07-28T01:23:04.288Z,14.65
2022-07-28T01:24:04.900Z,14.64
2022-07-28T01:25:04.887Z,14.63
2022-07-28T01:26:04.882Z,14.63
2022-07-28T01:27:04.229Z,14.61
2022-07-28T01:28:04.177Z,14.61
2022-07-28T01:29:04.183Z,14.60
2022-07-28T01:30:04.843Z,14.59
2022-07-28T01:31:04.844Z,14.58
2022-07-28T01:32:04.170Z,14.57
2022-07-28T01:33:04.139Z,14.57
2022-07-28T01:34:04.147Z,14.56
2022-07-28T01:35:04.340Z,14.56
2022-07-28T01:36:04.780Z,14.56
2022-07-28T01:37:04.339Z,14.56
2022-07-28T01:38:04.768Z,14.57
2022-07-28T01:39:04.742Z,14.57
2022-07-28T01:40:04.031Z,14.57
2022-07-28T01:41:04.052Z,14.56
2022-07-28T01:42:04.064Z,14.55
2022-07-28T01:43:04.684Z,14.56
2022-07-28T01:44:04.061Z,14.56
2022-07-28T01:45:04.072Z,14.54
2022-07-28T01:46:04.740Z,14.53
2022-07-28T01:47:04.649Z,14.53
2022-07-28T01:48:03.981Z,14.52
2022-07-28T01:49:04.691Z,14.52
2022-07-28T01:50:03.937Z,14.52
2022-07-28T01:51:04.614Z,14.52
2022-07-28T01:52:03.916Z,14.52
2022-07-28T01:53:04.034Z,14.52
2022-07-28T01:54:03.885Z,14.52
2022-07-28T01:55:04.944Z,14.51
2022-07-28T01:56:04.557Z,14.52
2022-07-28T01:57:04.545Z,14.51
2022-07-28T01:58:06.307Z,14.51
2022-07-28T01:59:03.852Z,14.51
2022-07-28T02:00:03.956Z,14.52
2022-07-28T02:01:04.021Z,14.51
2022-07-28T02:02:03.875Z,14.52
2022-07-28T02:03:04.467Z,14.52
2022-07-28T02:04:03.854Z,14.52
2022-07-28T02:05:04.517Z,14.51
2022-07-28T02:06:03.781Z,14.52
2022-07-28T02:07:04.598Z,14.51
2022-07-28T02:08:04.423Z,14.50
2022-07-28T02:09:03.740Z,14.50
2022-07-28T02:10:05.148Z,14.50
2022-07-28T02:11:04.393Z,14.50
2022-07-28T02:12:04.380Z,14.49
2022-07-28T02:13:03.831Z,14.49
2022-07-28T02:14:03.702Z,14.49
2022-07-28T02:15:05.599Z,14.49
2022-07-28T02:16:04.387Z,14.50
2022-07-28T02:17:04.321Z,14.50
2022-07-28T02:18:03.659Z,14.50
2022-07-28T02:19:05.104Z,14.49
2022-07-28T02:20:03.624Z,14.49
2022-07-28T02:21:04.270Z,14.48
2022-07-28T02:22:04.261Z,14.47
2022-07-28T02:23:03.603Z,14.47
2022-07-28T02:24:03.624Z,14.46
2022-07-28T02:25:06.063Z,14.46
2022-07-28T02:26:04.551Z,14.45
2022-07-28T02:27:04.203Z,14.44
2022-07-28T02:28:03.576Z,14.43
2022-07-28T02:29:04.195Z,14.41
2022-07-28T02:30:04.177Z,14.40
2022-07-28T02:31:04.287Z,14.38
2022-07-28T02:32:04.164Z,14.37
2022-07-28T02:33:06.937Z,14.35
2022-07-28T02:34:04.131Z,14.35
2022-07-28T02:35:04.798Z,14.34
2022-07-28T02:36:04.117Z,14.33
2022-07-28T02:37:03.474Z,14.31
2022-07-28T02:38:04.094Z,14.30
2022-07-28T02:39:04.083Z,14.29
2022-07-28T02:40:04.066Z,14.29
2022-07-28T02:41:04.074Z,14.28
2022-07-28T02:42:04.048Z,14.27
2022-07-28T02:43:04.109Z,14.26
2022-07-28T02:44:04.026Z,14.26
2022-07-28T02:45:03.334Z,14.25
2022-07-28T02:46:03.346Z,14.24
2022-07-28T02:47:03.997Z,14.23
2022-07-28T02:48:03.329Z,14.22
2022-07-28T02:49:05.617Z,14.21
2022-07-28T02:50:03.288Z,14.21
2022-07-28T02:51:03.300Z,14.22
2022-07-28T02:52:03.928Z,14.21
2022-07-28T02:53:14.938Z,14.19
2022-07-28T02:54:04.917Z,14.19
2022-07-28T02:55:03.229Z,14.18
2022-07-28T02:56:05.195Z,14.18
2022-07-28T02:57:03.890Z,14.18
2022-07-28T02:58:05.367Z,14.18
2022-07-28T02:59:03.859Z,14.17
2022-07-28T03:00:03.669Z,14.17
2022-07-28T03:01:03.904Z,14.14
2022-07-28T03:02:03.409Z,14.13
2022-07-28T03:03:04.741Z,14.11
2022-07-28T03:04:03.831Z,14.09
2022-07-28T03:05:03.250Z,14.07
2022-07-28T03:06:04.133Z,14.04
2022-07-28T03:07:03.800Z,14.02
2022-07-28T03:08:03.084Z,14.00
2022-07-28T03:09:03.090Z,13.97
2022-07-28T03:10:03.071Z,13.94
2022-07-28T03:11:03.092Z,13.91
2022-07-28T03:12:03.738Z,13.88
2022-07-28T03:13:03.038Z,13.86
2022-07-28T03:14:03.710Z,13.84
2022-07-28T03:15:03.045Z,13.80
2022-07-28T03:16:03.045Z,13.78
2022-07-28T03:17:03.774Z,13.75
2022-07-28T03:18:03.004Z,13.73
2022-07-28T03:19:02.957Z,13.72
2022-07-28T03:20:03.634Z,13.69
2022-07-28T03:21:02.964Z,13.66
2022-07-28T03:22:02.947Z,13.64
2022-07-28T03:23:03.642Z,13.62
2022-07-28T03:24:03.595Z,13.60
2022-07-28T03:25:02.945Z,13.58
2022-07-28T03:26:03.577Z,13.56
2022-07-28T03:27:03.555Z,13.53
2022-07-28T03:28:02.865Z,13.51
2022-07-28T03:29:03.009Z,13.51
2022-07-28T03:30:04.006Z,13.48
2022-07-28T03:31:03.718Z,13.47
2022-07-28T03:32:03.527Z,13.47
2022-07-28T03:33:02.796Z,13.47
2022-07-28T03:34:03.809Z,13.47
2022-07-28T03:35:03.534Z,13.48
2022-07-28T03:36:02.856Z,13.48
2022-07-28T03:37:03.499Z,13.48
2022-07-28T03:38:02.803Z,13.49
2022-07-28T03:39:03.429Z,13.50
2022-07-28T03:40:02.766Z,13.51
2022-07-28T03:41:03.499Z,13.51
2022-07-28T03:42:03.399Z,13.52
2022-07-28T03:43:03.390Z,13.51
2022-07-28T03:44:02.720Z,13.52
2022-07-28T03:45:02.697Z,13.53
2022-07-28T03:46:02.781Z,13.54
2022-07-28T03:47:02.699Z,13.54
2022-07-28T03:48:03.333Z,13.54
2022-07-28T03:49:03.457Z,13.53
2022-07-28T03:50:02.630Z,13.53
2022-07-28T03:51:02.620Z,13.53
2022-07-28T03:52:03.309Z,13.53
2022-07-28T03:53:04.672Z,13.53
2022-07-28T03:54:02.585Z,13.53
2022-07-28T03:55:03.263Z,13.54
2022-07-28T03:56:02.563Z,13.54
2022-07-28T03:57:03.232Z,13.53
2022-07-28T03:58:02.532Z,13.52
2022-07-28T03:59:02.592Z,13.52
2022-07-28T04:00:09.055Z,13.52
2022-07-28T04:01:05.092Z,13.53
2022-07-28T04:02:02.547Z,13.53
2022-07-28T04:03:03.221Z,13.53
2022-07-28T04:04:02.523Z,13.54
2022-07-28T04:05:02.533Z,13.55
2022-07-28T04:06:02.479Z,13.55
2022-07-28T04:07:03.128Z,13.56
2022-07-28T04:08:03.128Z,13.57
2022-07-28T04:09:03.115Z,13.58
2022-07-28T04:10:02.459Z,13.57
2022-07-28T04:11:02.567Z,13.58
2022-07-28T04:12:02.449Z,13.58
2022-07-28T04:13:04.837Z,13.58
2022-07-28T04:14:02.385Z,13.60
2022-07-28T04:15:02.407Z,13.60
2022-07-28T04:16:02.388Z,13.60
2022-07-28T04:17:03.085Z,13.61
2022-07-28T04:18:02.323Z,13.62
2022-07-28T04:19:03.001Z,13.61
2022-07-28T04:20:02.335Z,13.62
2022-07-28T04:21:03.323Z,13.63
2022-07-28T04:22:02.326Z,13.64
2022-07-28T04:23:04.061Z,13.67
2022-07-28T04:24:02.330Z,13.67
2022-07-28T04:25:02.934Z,13.69
2022-07-28T04:26:02.299Z,13.71
2022-07-28T04:27:02.281Z,13.73
2022-07-28T04:28:02.890Z,13.75
2022-07-28T04:29:03.358Z,13.77
2022-07-28T04:30:02.231Z,13.80
2022-07-28T04:31:02.333Z,13.83
2022-07-28T04:32:02.861Z,13.84
2022-07-28T04:33:02.863Z,13.85
2022-07-28T04:34:02.184Z,13.86
2022-07-28T04:35:02.829Z,13.88
2022-07-28T04:36:02.339Z,13.89
2022-07-28T04:37:02.192Z,13.93
2022-07-28T04:38:02.161Z,13.97
2022-07-28T04:39:02.245Z,14.00
2022-07-28T04:40:02.769Z,14.05
2022-07-28T04:41:02.161Z,14.08
2022-07-28T04:42:02.746Z,14.15
2022-07-28T04:43:02.106Z,14.25
2022-07-28T04:44:02.079Z,14.38
2022-07-28T04:45:02.085Z,14.52
2022-07-28T04:46:03.563Z,14.65
2022-07-28T04:47:02.077Z,14.81
2022-07-28T04:48:02.059Z,14.99
2022-07-28T04:49:02.126Z,15.14
2022-07-28T04:50:02.677Z,15.27
2022-07-28T04:51:02.636Z,15.38
2022-07-28T04:52:03.428Z,15.50
2022-07-28T04:53:02.622Z,15.59
2022-07-28T04:54:02.015Z,15.68
2022-07-28T04:55:02.071Z,15.78
2022-07-28T04:56:02.440Z,15.89
2022-07-28T04:57:03.705Z,15.98
2022-07-28T04:58:03.059Z,16.08
2022-07-28T04:59:02.665Z,16.16
2022-07-28T05:00:02.109Z,16.26
2022-07-28T05:01:01.987Z,16.35
2022-07-28T05:02:02.528Z,16.45
2022-07-28T05:03:02.529Z,16.54
2022-07-28T05:04:01.929Z,16.62
2022-07-28T05:05:01.992Z,16.69
2022-07-28T05:06:01.868Z,16.77
2022-07-28T05:07:07.943Z,16.82
2022-07-28T05:08:04.332Z,16.87
2022-07-28T05:09:01.798Z,16.89
2022-07-28T05:10:01.870Z,16.92
2022-07-28T05:11:01.807Z,16.98
2022-07-28T05:12:01.752Z,17.05
2022-07-28T05:13:01.770Z,17.11
2022-07-28T05:14:02.401Z,17.16
2022-07-28T05:15:01.764Z,17.21
2022-07-28T05:16:01.845Z,17.25
2022-07-28T05:17:02.410Z,17.31
2022-07-28T05:18:02.361Z,17.40
2022-07-28T05:19:01.701Z,17.50
2022-07-28T05:20:03.300Z,17.59
2022-07-28T05:21:02.632Z,17.66
2022-07-28T05:22:02.304Z,17.73
2022-07-28T05:23:01.684Z,17.81
2022-07-28T05:24:01.685Z,17.89
2022-07-28T05:25:01.662Z,17.99
2022-07-28T05:26:01.593Z,18.11
2022-07-28T05:27:01.625Z,18.28
2022-07-28T05:28:01.663Z,18.54
2022-07-28T05:29:02.243Z,18.80
2022-07-28T05:30:01.615Z,18.85
2022-07-28T05:31:01.608Z,18.87
2022-07-28T05:32:07.864Z,18.91
2022-07-28T05:33:03.189Z,18.97
2022-07-28T05:34:01.598Z,19.07
2022-07-28T05:35:02.165Z,19.16
2022-07-28T05:36:01.571Z,19.25
2022-07-28T05:37:01.486Z,19.40
2022-07-28T05:38:01.496Z,19.59
2022-07-28T05:39:01.518Z,19.78
2022-07-28T05:40:02.108Z,19.94
2022-07-28T05:41:01.458Z,20.08
2022-07-28T05:42:02.331Z,20.18
2022-07-28T05:43:02.088Z,20.22
2022-07-28T05:44:01.469Z,20.27
2022-07-28T05:45:01.428Z,20.41
2022-07-28T05:46:02.124Z,20.70
2022-07-28T05:47:02.048Z,21.07
2022-07-28T05:48:01.361Z,21.37
2022-07-28T05:49:01.441Z,21.71
2022-07-28T05:50:01.371Z,21.87
2022-07-28T05:51:02.037Z,22.19
2022-07-28T05:52:01.361Z,22.22
2022-07-28T05:53:01.984Z,22.54
2022-07-28T05:54:01.342Z,23.30
2022-07-28T05:55:01.302Z,24.03
2022-07-28T05:56:01.986Z,24.76
2022-07-28T05:57:01.424Z,25.38
2022-07-28T05:58:01.922Z,25.98
2022-07-28T05:59:01.933Z,26.51
2022-07-28T06:00:01.224Z,26.92
2022-07-28T06:01:01.608Z,27.33
2022-07-28T06:02:01.924Z,27.68
2022-07-28T06:03:01.868Z,28.01
2022-07-28T06:04:26.146Z,28.36
2022-07-28T06:05:02.198Z,28.66
2022-07-28T06:06:14.973Z,28.95
2022-07-28T06:07:02.197Z,29.26
2022-07-28T06:08:01.824Z,29.64
2022-07-28T06:09:01.814Z,30.05
2022-07-28T06:10:01.118Z,30.33
2022-07-28T06:11:01.108Z,30.39
2022-07-28T06:12:01.100Z,30.27
2022-07-28T06:13:01.750Z,30.37
2022-07-28T06:14:01.738Z,30.06
2022-07-28T06:15:01.127Z,29.79
2022-07-28T06:16:01.142Z,29.47
2022-07-28T06:17:02.081Z,29.25
2022-07-28T06:18:01.712Z,29.12
2022-07-28T06:19:01.041Z,29.22
2022-07-28T06:20:01.679Z,29.47
2022-07-28T06:21:01.799Z,29.59
2022-07-28T06:22:01.023Z,29.68
2022-07-28T06:23:01.074Z,29.72
2022-07-28T06:24:00.983Z,30.03
2022-07-28T06:25:01.631Z,30.80
2022-07-28T06:26:01.616Z,31.39
2022-07-28T06:27:01.632Z,31.82
2022-07-28T06:28:01.604Z,31.83
2022-07-28T06:29:01.590Z,31.35
2022-07-28T06:30:00.925Z,31.26
2022-07-28T06:31:00.923Z,31.88
2022-07-28T06:32:01.611Z,32.31
2022-07-28T06:33:00.913Z,32.32
2022-07-28T06:34:00.854Z,32.69
2022-07-28T06:35:00.844Z,33.17
2022-07-28T06:36:01.523Z,33.42
2022-07-28T06:37:01.511Z,33.28
2022-07-28T06:38:01.487Z,33.12
2022-07-28T06:39:01.465Z,32.90
2022-07-28T06:40:01.465Z,32.62
2022-07-28T06:41:00.786Z,32.10
2022-07-28T06:42:01.442Z,31.68
2022-07-28T06:43:01.431Z,31.46
2022-07-28T06:44:01.642Z,31.32
2022-07-28T06:45:00.779Z,31.32
2022-07-28T06:46:00.748Z,31.28
2022-07-28T06:47:00.855Z,31.41
2022-07-28T06:48:00.730Z,31.52
2022-07-28T06:49:01.420Z,31.65
2022-07-28T06:50:01.360Z,31.45
2022-07-28T06:51:01.330Z,31.43
2022-07-28T06:52:00.702Z,31.25
2022-07-28T06:53:01.545Z,30.78
2022-07-28T06:54:01.312Z,30.61
2022-07-28T06:55:00.672Z,30.54
2022-07-28T06:56:01.293Z,30.30
2022-07-28T06:57:01.303Z,30.12
2022-07-28T06:58:01.274Z,30.45
2022-07-28T06:59:00.632Z,31.22
2022-07-28T07:00:01.248Z,31.93
2022-07-28T07:01:01.273Z,32.39
2022-07-28T07:02:00.541Z,32.70
2022-07-28T07:03:01.704Z,32.78
2022-07-28T07:04:00.694Z,33.01
2022-07-28T07:05:00.496Z,33.27
2022-07-28T07:06:01.187Z,33.23
2022-07-28T07:07:01.168Z,33.69
2022-07-28T07:08:01.157Z,34.29
2022-07-28T07:09:00.567Z,34.78
2022-07-28T07:10:01.134Z,35.04
2022-07-28T07:11:01.138Z,35.27
2022-07-28T07:12:01.117Z,35.36
2022-07-28T07:13:00.858Z,35.42
2022-07-28T07:14:02.701Z,35.73
2022-07-28T07:15:00.482Z,35.84
2022-07-28T07:16:01.135Z,36.02
2022-07-28T07:17:00.412Z,36.20
2022-07-28T07:18:01.051Z,36.51
2022-07-28T07:19:01.044Z,36.71
2022-07-28T07:20:02.014Z,36.71
2022-07-28T07:21:00.360Z,36.49
2022-07-28T07:22:00.368Z,36.47
2022-07-28T07:23:01.000Z,35.65
2022-07-28T07:24:00.983Z,34.54
2022-07-28T07:25:00.301Z,33.78
2022-07-28T07:26:00.403Z,33.27
2022-07-28T07:27:00.296Z,33.34
2022-07-28T07:28:00.963Z,33.83
2022-07-28T07:29:00.936Z,34.13
2022-07-28T07:30:00.924Z,34.12
2022-07-28T07:31:00.289Z,34.04
2022-07-28T07:32:00.339Z,34.27
2022-07-28T07:33:00.916Z,34.42
2022-07-28T07:34:00.884Z,34.61
2022-07-28T07:35:00.866Z,35.00
2022-07-28T07:36:00.181Z,35.43
2022-07-28T07:37:00.927Z,35.82
2022-07-28T07:38:00.202Z,36.01
2022-07-28T07:39:00.176Z,36.00
2022-07-28T07:40:00.832Z,36.37
2022-07-28T07:41:00.138Z,36.65
2022-07-28T07:42:00.799Z,36.69
2022-07-28T07:43:00.130Z,35.45
2022-07-28T07:44:00.181Z,34.19
2022-07-28T07:45:00.078Z,33.14
2022-07-28T07:46:00.749Z,32.25
2022-07-28T07:47:00.790Z,31.80
2022-07-28T07:48:00.062Z,32.12
2022-07-28T07:49:00.785Z,33.00
2022-07-28T07:50:03.708Z,33.70
2022-07-28T07:51:00.064Z,34.25
2022-07-28T07:52:00.005Z,34.75
2022-07-28T07:53:00.672Z,34.72
2022-07-28T07:53:59.982Z,34.53
2022-07-28T07:55:00.664Z,34.39
2022-07-28T07:56:00.002Z,34.73
2022-07-28T07:57:00.636Z,35.16
2022-07-28T07:57:59.951Z,35.66
2022-07-28T07:58:59.937Z,35.90
2022-07-28T08:00:00.617Z,36.09
2022-07-28T08:01:00.584Z,36.32
2022-07-28T08:02:00.004Z,36.72
2022-07-28T08:03:00.574Z,37.03
2022-07-28T08:04:00.573Z,37.29
2022-07-28T08:04:59.923Z,37.39
2022-07-28T08:05:59.860Z,37.18
2022-07-28T08:06:59.856Z,36.57
2022-07-28T08:08:00.586Z,37.05
2022-07-28T08:09:00.507Z,37.24
2022-07-28T08:09:59.820Z,37.23
2022-07-28T08:10:59.798Z,37.28
2022-07-28T08:12:00.478Z,37.32
2022-07-28T08:12:59.796Z,37.36
2022-07-28T08:13:59.944Z,37.40
2022-07-28T08:15:00.466Z,37.26
2022-07-28T08:16:00.476Z,37.31
2022-07-28T08:16:59.783Z,37.32
2022-07-28T08:18:00.429Z,37.25
2022-07-28T08:18:59.736Z,37.19
2022-07-28T08:19:59.783Z,36.92
2022-07-28T08:21:00.371Z,37.15
2022-07-28T08:22:00.367Z,37.48
2022-07-28T08:23:00.364Z,37.71
2022-07-28T08:24:01.599Z,37.85
2022-07-28T08:24:59.656Z,37.94
2022-07-28T08:26:00.315Z,37.99
2022-07-28T08:27:00.239Z,37.61
2022-07-28T08:27:59.653Z,37.74
2022-07-28T08:28:59.633Z,37.92
2022-07-28T08:30:00.292Z,37.96
2022-07-28T08:30:59.651Z,37.49
2022-07-28T08:31:59.620Z,36.87
2022-07-28T08:33:00.245Z,36.65
2022-07-28T08:33:59.587Z,36.30
2022-07-28T08:35:31.210Z,36.00
2022-07-28T08:36:02.501Z,35.71
2022-07-28T08:37:00.197Z,35.58
2022-07-28T08:37:59.562Z,35.40
2022-07-28T08:39:00.177Z,35.28
2022-07-28T08:40:00.787Z,35.12
2022-07-28T08:41:00.183Z,35.17
2022-07-28T08:42:00.153Z,35.26
2022-07-28T08:43:00.143Z,35.31
2022-07-28T08:44:00.121Z,35.29
2022-07-28T08:44:59.429Z,35.16
2022-07-28T08:45:59.430Z,35.25
2022-07-28T08:47:00.144Z,35.25
2022-07-28T08:48:08.119Z,35.05
2022-07-28T08:49:02.389Z,34.55
2022-07-28T08:49:59.387Z,34.00
2022-07-28T08:50:59.363Z,33.99
2022-07-28T08:51:59.373Z,34.03
2022-07-28T08:53:00.075Z,34.00
2022-07-28T08:54:00.109Z,33.65
2022-07-28T08:54:59.634Z,33.50
2022-07-28T08:55:59.985Z,33.34
2022-07-28T08:57:02.796Z,33.18
2022-07-28T08:58:00.001Z,33.03
2022-07-28T08:58:59.290Z,33.00
2022-07-28T08:59:59.967Z,32.94
2022-07-28T09:00:59.936Z,32.82
2022-07-28T09:01:59.287Z,32.67
2022-07-28T09:02:59.306Z,32.64
2022-07-28T09:03:59.276Z,32.64
2022-07-28T09:04:59.229Z,32.71
2022-07-28T09:05:59.887Z,32.75
2022-07-28T09:06:59.858Z,32.76
2022-07-28T09:07:59.868Z,32.61
2022-07-28T09:08:59.863Z,32.40
2022-07-28T09:10:02.504Z,32.33
2022-07-28T09:10:59.829Z,32.22
2022-07-28T09:11:59.829Z,32.10
2022-07-28T09:12:59.809Z,32.00
2022-07-28T09:13:59.130Z,31.96
2022-07-28T09:14:59.141Z,32.02
2022-07-28T09:15:59.142Z,32.07
2022-07-28T09:16:59.146Z,32.13
2022-07-28T09:17:59.752Z,32.23
2022-07-28T09:18:59.124Z,32.41
2022-07-28T09:19:59.082Z,32.64
2022-07-28T09:20:59.754Z,32.81
2022-07-28T09:21:59.083Z,33.01
2022-07-28T09:22:59.704Z,33.20
2022-07-28T09:23:59.066Z,33.34
2022-07-28T09:24:59.673Z,33.32
2022-07-28T09:25:59.681Z,33.33
2022-07-28T09:26:59.668Z,33.33
2022-07-28T09:27:59.663Z,33.35
2022-07-28T09:28:59.645Z,33.37
2022-07-28T09:29:58.927Z,33.38
2022-07-28T09:30:59.790Z,33.44
2022-07-28T09:32:00.484Z,33.51
2022-07-28T09:32:58.929Z,33.60
2022-07-28T09:33:59.594Z,33.70
2022-07-28T09:34:58.921Z,33.71
2022-07-28T09:35:59.564Z,33.69
2022-07-28T09:36:59.528Z,33.56
2022-07-28T09:37:58.857Z,33.52
2022-07-28T09:38:58.838Z,33.20
2022-07-28T09:39:59.606Z,33.30
2022-07-28T09:40:59.520Z,33.43
2022-07-28T09:41:59.528Z,33.57
2022-07-28T09:42:59.481Z,33.66
2022-07-28T09:43:58.842Z,33.71
2022-07-28T09:45:21.291Z,33.79
2022-07-28T09:45:59.826Z,33.90
2022-07-28T09:46:59.601Z,34.01
2022-07-28T09:47:58.916Z,34.06
2022-07-28T09:48:59.024Z,34.14
2022-07-28T09:49:59.501Z,34.20
2022-07-28T09:50:58.706Z,34.18
2022-07-28T09:51:59.385Z,34.12
2022-07-28T09:52:59.385Z,34.08
2022-07-28T09:53:58.720Z,34.16
2022-07-28T09:54:58.699Z,34.25
2022-07-28T09:55:59.374Z,34.32
2022-07-28T09:56:59.335Z,34.33
2022-07-28T09:57:59.327Z,34.33
2022-07-28T09:58:58.616Z,34.27
2022-07-28T09:59:58.637Z,34.24
2022-07-28T10:00:59.319Z,34.30
2022-07-28T10:01:59.361Z,34.35
2022-07-28T10:02:59.349Z,34.39
2022-07-28T10:04:02.832Z,34.44
2022-07-28T10:04:59.250Z,34.50
2022-07-28T10:05:59.246Z,34.52
2022-07-28T10:06:59.254Z,34.58
2022-07-28T10:07:59.232Z,34.69
2022-07-28T10:08:59.224Z,34.82
2022-07-28T10:09:58.509Z,34.94
2022-07-28T10:10:59.193Z,35.08
2022-07-28T10:11:58.494Z,35.28
2022-07-28T10:12:58.512Z,35.48
2022-07-28T10:13:59.155Z,35.60
2022-07-28T10:14:59.170Z,35.76
2022-07-28T10:15:58.509Z,35.51
2022-07-28T10:17:04.174Z,35.02
2022-07-28T10:18:00.120Z,34.26
2022-07-28T10:18:58.447Z,34.10
2022-07-28T10:19:59.087Z,34.06
2022-07-28T10:20:59.083Z,34.55
2022-07-28T10:21:59.070Z,35.13
2022-07-28T10:22:59.058Z,35.80
2022-07-28T10:23:59.061Z,36.46
2022-07-28T10:24:59.865Z,36.94
2022-07-28T10:25:59.049Z,37.54
2022-07-28T10:26:59.016Z,38.04
2022-07-28T10:27:59.016Z,38.58
2022-07-28T10:28:59.001Z,39.09
2022-07-28T10:29:58.342Z,38.98
2022-07-28T10:30:58.343Z,38.71
2022-07-28T10:31:58.962Z,39.23
2022-07-28T10:32:58.951Z,39.59
2022-07-28T10:33:58.282Z,40.00
2022-07-28T10:34:58.931Z,40.38
2022-07-28T10:35:58.288Z,40.64
2022-07-28T10:36:58.992Z,40.80
2022-07-28T10:37:58.212Z,40.96
2022-07-28T10:38:58.893Z,41.07
2022-07-28T10:39:58.888Z,41.23
2022-07-28T10:40:58.874Z,41.32
2022-07-28T10:41:58.853Z,41.21
2022-07-28T10:42:58.846Z,41.21
2022-07-28T10:43:58.153Z,41.26
2022-07-28T10:44:58.827Z,41.29
2022-07-28T10:46:07.516Z,41.19
2022-07-28T10:46:59.265Z,41.02
2022-07-28T10:47:58.807Z,40.89
2022-07-28T10:48:58.806Z,40.53
2022-07-28T10:49:58.777Z,39.35
2022-07-28T10:50:58.078Z,36.26
2022-07-28T10:52:19.756Z,34.71
2022-07-28T10:52:59.534Z,34.12
2022-07-28T10:53:58.822Z,32.56
2022-07-28T10:54:58.737Z,31.58
2022-07-28T10:55:58.065Z,31.06
2022-07-28T10:56:59.022Z,30.37
2022-07-28T10:58:02.205Z,29.67
2022-07-28T10:59:04.738Z,29.19
2022-07-28T11:00:05.334Z,28.86
2022-07-28T11:01:05.858Z,28.56
2022-07-28T11:01:59.772Z,28.25
2022-07-28T11:02:58.068Z,27.95
2022-07-28T11:03:57.996Z,27.73
2022-07-28T11:04:58.595Z,27.54
2022-07-28T11:05:58.601Z,27.31
2022-07-28T11:06:57.904Z,27.06
2022-07-28T11:07:58.583Z,26.80
2022-07-28T11:08:57.893Z,26.57
2022-07-28T11:09:58.555Z,26.37
2022-07-28T11:11:07.529Z,26.22
2022-07-28T11:12:00.828Z,26.11
2022-07-28T11:12:57.824Z,26.01
2022-07-28T11:13:57.836Z,25.93
2022-07-28T11:14:58.513Z,25.84
2022-07-28T11:16:01.095Z,25.76
2022-07-28T11:16:58.550Z,25.69
2022-07-28T11:17:58.460Z,25.61
2022-07-28T11:18:57.784Z,25.53
2022-07-28T11:21:00.578Z,25.39
2022-07-28T11:21:57.798Z,25.31
2022-07-28T11:22:59.446Z,25.21
2022-07-28T11:23:57.770Z,25.10
2022-07-28T11:24:58.561Z,25.03
2022-07-28T11:25:58.381Z,24.94
2022-07-28T11:27:01.103Z,24.84
2022-07-28T11:28:00.652Z,24.74
2022-07-28T11:28:57.780Z,24.67
2022-07-28T11:29:58.331Z,24.61
2022-07-28T11:30:57.767Z,24.57
2022-07-28T11:31:57.648Z,24.56
2022-07-28T11:32:57.984Z,24.54
2022-07-28T11:33:57.653Z,24.53
2022-07-28T11:34:57.608Z,24.53
2022-07-28T11:35:58.294Z,24.50
2022-07-28T11:36:58.270Z,24.50
2022-07-28T11:37:57.577Z,24.53
2022-07-28T11:38:59.043Z,24.56
2022-07-28T11:39:58.233Z,24.59
2022-07-28T11:40:58.217Z,24.61
2022-07-28T11:41:58.215Z,24.66
2022-07-28T11:42:59.467Z,24.70
2022-07-28T11:43:57.735Z,24.72
2022-07-28T11:44:57.584Z,24.73
2022-07-28T11:45:58.186Z,24.75
2022-07-28T11:46:58.156Z,24.77
2022-07-28T11:47:58.137Z,24.80
2022-07-28T11:48:57.529Z,24.82
2022-07-28T11:49:57.455Z,24.85
2022-07-28T11:50:58.148Z,24.87
2022-07-28T11:51:57.448Z,24.88
2022-07-28T11:52:57.398Z,24.88
2022-07-28T11:53:58.070Z,24.88
2022-07-28T11:54:58.377Z,24.87
2022-07-28T11:56:02.946Z,24.89
2022-07-28T11:57:00.345Z,24.91
2022-07-28T11:57:57.371Z,24.90
2022-07-28T11:58:58.030Z,24.89
2022-07-28T11:59:57.401Z,24.96
2022-07-28T12:00:58.023Z,25.02
2022-07-28T12:01:57.408Z,24.94
2022-07-28T12:02:57.354Z,24.87
2022-07-28T12:03:59.212Z,24.83
2022-07-28T12:04:57.319Z,24.82
2022-07-28T12:05:57.278Z,24.83
2022-07-28T12:06:57.924Z,24.83
2022-07-28T12:07:57.923Z,24.86
2022-07-28T12:08:57.305Z,24.88
2022-07-28T12:09:57.905Z,24.90
2022-07-28T12:10:57.310Z,24.90
2022-07-28T12:11:57.213Z,24.94
2022-07-28T12:12:57.864Z,24.97
2022-07-28T12:13:57.216Z,25.00
2022-07-28T12:14:57.184Z,25.01
2022-07-28T12:15:57.297Z,25.02
2022-07-28T12:16:57.244Z,25.01
2022-07-28T12:17:57.136Z,25.01
2022-07-28T12:18:57.810Z,25.01
2022-07-28T12:19:57.098Z,25.03
2022-07-28T12:21:01.705Z,25.05
2022-07-28T12:21:58.674Z,25.08
2022-07-28T12:22:57.758Z,25.10
2022-07-28T12:23:57.748Z,25.12
2022-07-28T12:24:57.756Z,25.12
2022-07-28T12:25:57.727Z,25.10
2022-07-28T12:26:57.710Z,25.08
2022-07-28T12:27:57.028Z,25.03
2022-07-28T12:28:57.048Z,24.98
2022-07-28T12:29:58.955Z,24.95
2022-07-28T12:30:56.981Z,24.98
2022-07-28T12:31:59.284Z,25.04
2022-07-28T12:32:59.007Z,25.11
2022-07-28T12:33:56.942Z,25.20
2022-07-28T12:34:57.657Z,25.26
2022-07-28T12:35:56.934Z,25.30
2022-07-28T12:36:57.626Z,25.35
2022-07-28T12:37:58.815Z,25.40
2022-07-28T12:38:57.575Z,25.41
2022-07-28T12:39:58.826Z,25.38
2022-07-28T12:40:58.124Z,25.39
2022-07-28T12:41:56.873Z,25.39
2022-07-28T12:42:56.865Z,25.39
2022-07-28T12:43:56.857Z,25.42
2022-07-28T12:44:57.506Z,25.44
2022-07-28T12:45:57.627Z,25.48
2022-07-28T12:46:58.748Z,25.49
2022-07-28T12:47:56.831Z,25.50
2022-07-28T12:48:57.529Z,25.48
2022-07-28T12:50:01.405Z,25.47
2022-07-28T12:50:58.619Z,25.44
2022-07-28T12:51:57.440Z,25.41
2022-07-28T12:52:57.448Z,25.41